Time;durP1;ratioP1;P1;durP2;ratioP2;P2;SDS_P1;SDS_P2;PMS_P1;PMS_P2;Temp;Humidity;BMP_temperature;BMP_pressure;BME280_temperature;BME280_humidity;BME280_pressure;Samples;Min_cycle;Max_cycle;Signal;HPM_P1;HPM_P2
2023/12/01 00:00:19;;;;;;;15.60;10.50;;;;;;;;;;4999095;28;20489;-83
2023/12/01 00:02:45;;;;;;;13.77;10.73;;;;;;;;;;5032702;28;20406;-83
2023/12/01 00:05:11;;;;;;;11.63;8.80;;;;;;;;;;5032576;28;20905;-84
2023/12/01 00:07:37;;;;;;;12.63;10.30;;;;;;;;;;5032529;28;20415;-82
2023/12/01 00:10:04;;;;;;;12.13;9.43;;;;;;;;;;5033073;28;20441;-83
2023/12/01 00:12:31;;;;;;;14.20;8.70;;;;;;;;;;5032163;28;20427;-83
2023/12/01 00:14:57;;;;;;;12.63;9.33;;;;;;;;;;5032583;28;20406;-83
2023/12/01 00:17:22;;;;;;;16.50;10.40;;;;;;;;;;5047915;28;20430;-83
2023/12/01 00:19:48;;;;;;;14.13;10.67;;;;;;;;;;5032494;28;20423;-81
2023/12/01 00:22:14;;;;;;;13.50;9.30;;;;;;;;;;5032547;28;20421;-83
2023/12/01 00:24:40;;;;;;;14.83;9.90;;;;;;;;;;5032492;28;20932;-83
2023/12/01 00:27:06;;;;;;;14.60;10.07;;;;;;;;;;5032036;28;20476;-82
2023/12/01 00:29:32;;;;;;;13.07;9.30;;;;;;;;;;5032549;28;20416;-83
2023/12/01 00:31:58;;;;;;;13.90;10.63;;;;;;;;;;5047800;28;20429;-82
2023/12/01 00:34:24;;;;;;;14.03;10.50;;;;;;;;;;5032456;28;20472;-83
2023/12/01 00:36:50;;;;;;;13.10;9.73;;;;;;;;;;5032459;28;20416;-82
2023/12/01 00:39:16;;;;;;;20.00;11.40;;;;;;;;;;5048021;28;20428;-86
2023/12/01 00:41:42;;;;;;;16.67;9.40;;;;;;;;;;5031245;28;20424;-83
2023/12/01 00:44:08;;;;;;;14.20;9.73;;;;;;;;;;5032027;28;20822;-82
2023/12/01 00:46:34;;;;;;;16.10;9.50;;;;;;;;;;5032242;28;20481;-83
2023/12/01 00:49:00;;;;;;;12.50;9.03;;;;;;;;;;5034893;28;20408;-84
2023/12/01 00:51:26;;;;;;;14.60;10.40;;;;;;;;;;5035829;28;20491;-83
2023/12/01 00:53:52;;;;;;;13.50;9.53;;;;;;;;;;5036044;28;20821;-84
2023/12/01 00:56:18;;;;;;;15.27;9.80;;;;;;;;;;5035969;28;20459;-82
2023/12/01 00:58:44;;;;;;;13.50;9.90;;;;;;;;;;5035570;28;20846;-84
2023/12/01 01:01:10;;;;;;;14.73;10.00;;;;;;;;;;4994820;28;20472;-84
2023/12/01 01:03:36;;;;;;;14.17;9.60;;;;;;;;;;5016119;28;20492;-83
2023/12/01 01:06:14;;;;;;;16.63;9.83;;;;;;;;;;5015914;28;20516;-84
2023/12/01 01:08:40;;;;;;;15.80;9.70;;;;;;;;;;5014709;28;20432;-82
2023/12/01 01:11:06;;;;;;;12.83;9.67;;;;;;;;;;5015968;28;20408;-85
2023/12/01 01:13:32;;;;;;;14.30;9.30;;;;;;;;;;5015621;28;20914;-82
2023/12/01 01:15:58;;;;;;;13.07;9.20;;;;;;;;;;5015920;28;20416;-85
2023/12/01 01:18:24;;;;;;;14.13;9.20;;;;;;;;;;5015820;28;20929;-85
2023/12/01 01:20:50;;;;;;;13.40;8.63;;;;;;;;;;5015675;28;20425;-81
2023/12/01 01:23:16;;;;;;;15.83;10.60;;;;;;;;;;5015744;28;20438;-83
2023/12/01 01:25:42;;;;;;;13.33;9.00;;;;;;;;;;5015563;28;20473;-84
2023/12/01 01:28:11;;;;;;;12.90;7.93;;;;;;;;;;5014251;28;20917;-86
2023/12/01 01:30:37;;;;;;;13.13;9.40;;;;;;;;;;5015541;28;20531;-83
2023/12/01 01:33:03;;;;;;;12.43;10.07;;;;;;;;;;5014460;28;20411;-83
2023/12/01 01:35:31;;;;;;;13.00;8.87;;;;;;;;;;5015606;28;20445;-82
2023/12/01 01:37:57;;;;;;;13.50;9.57;;;;;;;;;;5015492;28;20450;-83
2023/12/01 01:40:23;;;;;;;15.53;9.87;;;;;;;;;;5015442;28;20445;-82
2023/12/01 01:42:49;;;;;;;11.80;8.27;;;;;;;;;;5014927;28;20450;-83
2023/12/01 01:45:15;;;;;;;14.93;10.50;;;;;;;;;;5013997;28;20460;-83
2023/12/01 01:47:41;;;;;;;14.27;9.70;;;;;;;;;;5015372;28;20783;-83
2023/12/01 01:50:07;;;;;;;14.80;9.33;;;;;;;;;;5015323;28;20479;-82
2023/12/01 01:52:36;;;;;;;13.20;8.10;;;;;;;;;;5015162;28;20468;-84
2023/12/01 01:55:02;;;;;;;14.50;9.80;;;;;;;;;;5015221;28;20412;-84
2023/12/01 01:57:28;;;;;;;15.43;11.07;;;;;;;;;;5013574;28;20834;-85
2023/12/01 01:59:54;;;;;;;23.67;10.33;;;;;;;;;;5015081;28;20747;-84
2023/12/01 02:02:22;;;;;;;17.77;10.77;;;;;;;;;;5013733;28;20466;-84
2023/12/01 02:04:48;;;;;;;16.30;10.57;;;;;;;;;;5015071;28;20942;-85
2023/12/01 02:07:27;;;;;;;16.03;9.40;;;;;;;;;;5014959;28;20472;-85
2023/12/01 02:09:55;;;;;;;17.60;11.37;;;;;;;;;;5014069;28;20439;-83
2023/12/01 02:12:21;;;;;;;13.83;9.10;;;;;;;;;;5014623;28;20408;-83
2023/12/01 02:14:47;;;;;;;15.40;9.53;;;;;;;;;;5014953;28;20557;-84
2023/12/01 02:17:13;;;;;;;13.80;10.10;;;;;;;;;;5014806;28;20419;-83
2023/12/01 02:19:42;;;;;;;14.97;10.00;;;;;;;;;;5013418;28;20424;-83
2023/12/01 02:22:08;;;;;;;18.00;10.87;;;;;;;;;;5014716;28;20411;-83
2023/12/01 02:24:34;;;;;;;16.87;9.97;;;;;;;;;;5013316;28;20422;-83
2023/12/01 02:26:59;;;;;;;14.23;9.77;;;;;;;;;;5012809;28;20532;-83
2023/12/01 02:29:25;;;;;;;16.30;11.07;;;;;;;;;;5014464;28;20461;-83
2023/12/01 02:31:51;;;;;;;16.40;10.90;;;;;;;;;;5013111;28;20762;-84
2023/12/01 02:34:21;;;;;;;12.67;9.83;;;;;;;;;;5014333;28;20501;-83
2023/12/01 02:36:47;;;;;;;17.70;9.60;;;;;;;;;;5014290;28;20523;-83
2023/12/01 02:39:13;;;;;;;16.77;10.23;;;;;;;;;;5013010;28;20516;-83
2023/12/01 02:41:39;;;;;;;16.10;10.67;;;;;;;;;;5012588;28;20471;-84
2023/12/01 02:44:05;;;;;;;16.00;11.00;;;;;;;;;;5014250;28;20409;-82
2023/12/01 02:46:31;;;;;;;18.67;10.07;;;;;;;;;;5012815;28;20480;-85
2023/12/01 02:48:57;;;;;;;16.80;10.50;;;;;;;;;;5013047;28;20418;-82
2023/12/01 02:51:24;;;;;;;14.13;9.87;;;;;;;;;;5012650;28;20431;-82
2023/12/01 02:53:50;;;;;;;15.87;9.77;;;;;;;;;;5014203;28;20412;-85
2023/12/01 02:56:16;;;;;;;18.20;11.67;;;;;;;;;;5013980;28;20894;-82
2023/12/01 02:58:42;;;;;;;17.33;11.10;;;;;;;;;;5013636;28;20410;-86
2023/12/01 03:01:08;;;;;;;16.00;10.00;;;;;;;;;;4973564;28;20552;-85
2023/12/01 03:03:34;;;;;;;14.53;9.70;;;;;;;;;;5013927;28;20891;-83
2023/12/01 03:06:00;;;;;;;17.17;10.50;;;;;;;;;;5014272;28;20813;-82
2023/12/01 03:08:26;;;;;;;18.03;10.93;;;;;;;;;;5014676;28;20464;-83
2023/12/01 03:10:58;;;;;;;20.97;10.33;;;;;;;;;;5014706;28;20419;-83
2023/12/01 03:13:24;;;;;;;16.43;10.27;;;;;;;;;;5020306;28;20406;-82
2023/12/01 03:15:51;;;;;;;16.60;10.70;;;;;;;;;;5014033;28;20497;-85
2023/12/01 03:18:17;;;;;;;17.77;11.27;;;;;;;;;;5014952;28;20428;-83
2023/12/01 03:20:42;;;;;;;14.70;9.20;;;;;;;;;;5013761;28;20831;-83
2023/12/01 03:23:08;;;;;;;18.67;10.57;;;;;;;;;;5013635;28;20485;-82
2023/12/01 03:25:34;;;;;;;13.03;8.97;;;;;;;;;;5013423;28;20479;-85
2023/12/01 03:28:00;;;;;;;16.50;12.17;;;;;;;;;;5013021;28;20409;-85
2023/12/01 03:30:26;;;;;;;14.87;10.73;;;;;;;;;;5013441;28;20418;-82
2023/12/01 03:32:53;;;;;;;20.20;9.73;;;;;;;;;;5013428;28;20910;-83
2023/12/01 03:35:25;;;;;;;15.80;11.03;;;;;;;;;;5013331;28;20424;-87
2023/12/01 03:37:55;;;;;;;19.30;11.23;;;;;;;;;;5013672;28;20413;-85
2023/12/01 03:40:21;;;;;;;17.50;11.07;;;;;;;;;;5012195;28;20423;-86
2023/12/01 03:42:48;;;;;;;17.50;11.10;;;;;;;;;;5013139;28;20461;-87
2023/12/01 03:45:14;;;;;;;18.60;10.93;;;;;;;;;;5013358;28;20414;-85
2023/12/01 03:47:41;;;;;;;19.70;11.47;;;;;;;;;;5013261;28;20424;-86
2023/12/01 03:50:14;;;;;;;16.23;10.97;;;;;;;;;;5013295;28;20421;-84
2023/12/01 03:52:41;;;;;;;15.73;11.00;;;;;;;;;;5013212;28;20511;-84
2023/12/01 03:55:07;;;;;;;18.80;11.70;;;;;;;;;;5013317;28;20415;-86
2023/12/01 03:57:33;;;;;;;20.00;11.30;;;;;;;;;;5012990;28;20430;-85
2023/12/01 03:59:59;;;;;;;19.30;11.57;;;;;;;;;;5013242;28;20900;-85
2023/12/01 04:02:25;;;;;;;18.13;10.87;;;;;;;;;;5013179;28;20417;-82
2023/12/01 04:04:51;;;;;;;14.10;9.17;;;;;;;;;;5013253;28;20417;-85
2023/12/01 04:07:17;;;;;;;16.30;10.53;;;;;;;;;;5013112;28;20964;-83
2023/12/01 04:09:43;;;;;;;16.73;10.87;;;;;;;;;;5013225;28;20416;-86
2023/12/01 04:12:09;;;;;;;21.00;11.50;;;;;;;;;;5012892;28;20420;-84
2023/12/01 04:14:35;;;;;;;18.60;11.30;;;;;;;;;;5013105;28;20429;-86
2023/12/01 04:17:08;;;;;;;19.67;13.03;;;;;;;;;;5013002;28;20413;-82
2023/12/01 04:19:35;;;;;;;16.27;11.73;;;;;;;;;;5013229;28;20425;-83
2023/12/01 04:22:02;;;;;;;21.47;11.70;;;;;;;;;;5013098;28;20485;-87
2023/12/01 04:24:28;;;;;;;21.60;11.97;;;;;;;;;;5015099;28;20501;-85
2023/12/01 04:26:54;;;;;;;23.90;12.60;;;;;;;;;;5031812;28;20467;-83
2023/12/01 04:29:20;;;;;;;16.17;9.57;;;;;;;;;;5017077;28;20410;-83
2023/12/01 04:31:46;;;;;;;20.87;11.73;;;;;;;;;;5015704;28;20437;-87
2023/12/01 04:34:12;;;;;;;20.10;11.30;;;;;;;;;;5015565;28;20417;-84
2023/12/01 04:36:38;;;;;;;20.50;12.43;;;;;;;;;;5015585;28;20441;-86
2023/12/01 04:39:04;;;;;;;19.67;12.87;;;;;;;;;;5016697;28;20768;-85
2023/12/01 04:41:34;;;;;;;19.70;11.80;;;;;;;;;;5016407;28;20410;-85
2023/12/01 04:44:00;;;;;;;20.40;13.17;;;;;;;;;;5016738;28;20401;-85
2023/12/01 04:46:26;;;;;;;21.40;12.40;;;;;;;;;;5015389;28;20487;-85
2023/12/01 04:48:53;;;;;;;21.03;11.63;;;;;;;;;;5015400;28;20417;-86
2023/12/01 04:51:19;;;;;;;27.50;14.23;;;;;;;;;;5016459;28;20434;-85
2023/12/01 04:53:45;;;;;;;21.67;13.07;;;;;;;;;;5015329;28;20468;-85
2023/12/01 04:56:13;;;;;;;24.23;14.50;;;;;;;;;;5016218;28;20466;-85
2023/12/01 04:58:39;;;;;;;22.53;13.93;;;;;;;;;;5016507;28;20408;-85
2023/12/01 05:01:05;;;;;;;18.80;12.50;;;;;;;;;;5016411;28;20435;-86
2023/12/01 05:03:31;;;;;;;22.17;13.43;;;;;;;;;;5015223;28;20446;-85
2023/12/01 05:05:58;;;;;;;25.20;15.50;;;;;;;;;;5031527;28;20510;-84
2023/12/01 05:08:27;;;;;;;24.70;13.30;;;;;;;;;;5016178;28;20416;-84
2023/12/01 05:10:54;;;;;;;23.40;15.30;;;;;;;;;;5016055;28;20966;-84
2023/12/01 05:13:20;;;;;;;24.03;14.90;;;;;;;;;;5030843;28;20772;-84
2023/12/01 05:15:49;;;;;;;23.90;15.97;;;;;;;;;;5015081;28;20512;-86
2023/12/01 05:18:15;;;;;;;26.70;16.13;;;;;;;;;;5016180;28;20409;-85
2023/12/01 05:20:41;;;;;;;23.17;13.00;;;;;;;;;;5020877;28;20898;-86
2023/12/01 05:23:09;;;;;;;18.83;12.60;;;;;;;;;;5018388;28;20417;-87
2023/12/01 05:25:36;;;;;;;23.00;12.57;;;;;;;;;;5016016;28;20794;-86
2023/12/01 05:28:03;;;;;;;23.77;14.90;;;;;;;;;;5015347;28;20428;-86
2023/12/01 05:30:30;;;;;;;21.10;13.87;;;;;;;;;;5015579;28;20417;-85
2023/12/01 05:32:58;;;;;;;25.77;15.50;;;;;;;;;;5015710;28;20797;-84
2023/12/01 05:35:24;;;;;;;22.03;13.40;;;;;;;;;;5015241;28;20417;-85
2023/12/01 05:37:51;;;;;;;26.20;16.20;;;;;;;;;;5015752;28;20421;-85
2023/12/01 05:40:20;;;;;;;24.40;16.00;;;;;;;;;;5015622;28;20417;-85
2023/12/01 05:42:46;;;;;;;21.13;12.93;;;;;;;;;;5015304;28;20425;-86
2023/12/01 05:45:12;;;;;;;23.33;14.70;;;;;;;;;;5015443;28;20800;-86
2023/12/01 05:47:42;;;;;;;21.40;14.47;;;;;;;;;;5015719;28;20422;-86
2023/12/01 05:50:12;;;;;;;24.80;14.87;;;;;;;;;;5014669;28;21008;-88
2023/12/01 05:52:38;;;;;;;23.43;13.93;;;;;;;;;;5015329;28;20475;-86
2023/12/01 05:55:10;;;;;;;22.97;14.57;;;;;;;;;;5015490;28;20897;-85
2023/12/01 05:57:36;;;;;;;19.43;12.90;;;;;;;;;;5015054;28;20424;-86
2023/12/01 06:00:02;;;;;;;26.53;15.13;;;;;;;;;;5013722;28;20417;-85
2023/12/01 06:02:28;;;;;;;25.70;15.17;;;;;;;;;;5015248;28;20418;-85
2023/12/01 06:04:57;;;;;;;23.60;14.90;;;;;;;;;;5015216;28;20881;-85
2023/12/01 06:07:23;;;;;;;28.27;16.07;;;;;;;;;;5013961;28;20482;-87
2023/12/01 06:09:49;;;;;;;25.27;14.40;;;;;;;;;;5013888;28;20778;-83
2023/12/01 06:12:15;;;;;;;22.10;13.80;;;;;;;;;;4975339;28;20453;-86
2023/12/01 06:14:41;;;;;;;24.63;15.83;;;;;;;;;;5015409;28;20410;-83
2023/12/01 06:17:07;;;;;;;25.47;15.10;;;;;;;;;;5015161;28;20415;-87
2023/12/01 06:19:33;;;;;;;19.10;13.30;;;;;;;;;;5015212;28;20406;-86
2023/12/01 06:21:59;;;;;;;23.03;15.23;;;;;;;;;;5014857;28;20476;-84
2023/12/01 06:24:25;;;;;;;19.70;13.50;;;;;;;;;;5014733;28;20404;-84
2023/12/01 06:26:52;;;;;;;24.00;14.30;;;;;;;;;;5014367;28;20826;-83
2023/12/01 06:29:18;;;;;;;22.27;14.33;;;;;;;;;;5014816;28;20410;-83
2023/12/01 06:31:44;;;;;;;22.30;12.90;;;;;;;;;;5014635;28;20418;-82
2023/12/01 06:34:10;;;;;;;27.10;16.00;;;;;;;;;;5014675;28;20460;-84
2023/12/01 06:36:36;;;;;;;23.27;15.63;;;;;;;;;;5014418;28;20410;-85
2023/12/01 06:39:10;;;;;;;21.57;13.50;;;;;;;;;;5014588;28;20520;-85
2023/12/01 06:41:36;;;;;;;25.37;16.40;;;;;;;;;;5028798;28;20416;-83
2023/12/01 06:44:01;;;;;;;18.87;12.63;;;;;;;;;;5014725;28;20759;-83
2023/12/01 06:46:28;;;;;;;21.50;14.03;;;;;;;;;;5013696;28;20969;-86
2023/12/01 06:48:54;;;;;;;22.00;13.67;;;;;;;;;;5013146;28;20981;-85
2023/12/01 06:51:20;;;;;;;22.50;15.00;;;;;;;;;;5014087;28;20563;-85
2023/12/01 06:53:46;;;;;;;23.90;14.50;;;;;;;;;;5014303;28;20421;-86
2023/12/01 06:56:11;;;;;;;23.60;13.43;;;;;;;;;;5013928;28;20427;-86
2023/12/01 06:58:37;;;;;;;20.90;13.93;;;;;;;;;;5014217;28;20420;-86
2023/12/01 07:01:08;;;;;;;23.77;14.33;;;;;;;;;;5014196;28;20760;-85
2023/12/01 07:03:34;;;;;;;21.30;14.33;;;;;;;;;;5014277;28;20421;-86
2023/12/01 07:06:01;;;;;;;22.00;15.83;;;;;;;;;;5015237;28;20500;-82
2023/12/01 07:08:27;;;;;;;25.43;16.03;;;;;;;;;;4998452;28;20765;-84
2023/12/01 07:10:52;;;;;;;26.73;16.47;;;;;;;;;;5001033;28;20522;-86
2023/12/01 07:13:18;;;;;;;24.60;14.60;;;;;;;;;;5029253;28;20421;-85
2023/12/01 07:15:47;;;;;;;21.07;13.13;;;;;;;;;;5013918;28;20752;-86
2023/12/01 07:18:13;;;;;;;26.47;15.37;;;;;;;;;;4994223;28;20413;-82
2023/12/01 07:20:39;;;;;;;27.07;14.53;;;;;;;;;;4993820;28;20464;-84
2023/12/01 07:23:08;;;;;;;23.67;14.90;;;;;;;;;;5013930;28;20453;-85
2023/12/01 07:25:34;;;;;;;24.30;14.93;;;;;;;;;;5013722;28;20796;-85
2023/12/01 07:28:04;;;;;;;23.10;14.87;;;;;;;;;;5013540;28;20422;-86
2023/12/01 07:30:30;;;;;;;23.73;16.00;;;;;;;;;;5013994;28;20771;-83
2023/12/01 07:32:56;;;;;;;24.00;15.23;;;;;;;;;;5013029;28;20421;-86
2023/12/01 07:35:22;;;;;;;27.67;15.77;;;;;;;;;;5013847;28;20405;-84
2023/12/01 07:37:51;;;;;;;24.20;15.53;;;;;;;;;;5013775;28;20407;-83
2023/12/01 07:40:21;;;;;;;27.70;16.77;;;;;;;;;;5013474;28;20398;-86
2023/12/01 07:42:47;;;;;;;29.73;16.13;;;;;;;;;;5013294;28;20413;-84
2023/12/01 07:45:17;;;;;;;29.13;17.87;;;;;;;;;;5012511;28;20424;-87
2023/12/01 07:47:43;;;;;;;28.03;17.10;;;;;;;;;;5014009;28;20410;-85
2023/12/01 07:50:09;;;;;;;26.90;14.97;;;;;;;;;;5014359;28;21015;-84
2023/12/01 07:52:35;;;;;;;25.73;13.53;;;;;;;;;;5014746;28;20878;-85
2023/12/01 07:55:03;;;;;;;31.17;19.40;;;;;;;;;;5018277;28;20419;-84
2023/12/01 07:57:29;;;;;;;22.60;16.23;;;;;;;;;;5014141;28;20508;-85
2023/12/01 07:59:57;;;;;;;25.23;16.17;;;;;;;;;;5009720;28;20453;-83
2023/12/01 08:02:23;;;;;;;24.03;14.53;;;;;;;;;;5001361;28;20457;-84
2023/12/01 08:04:48;;;;;;;24.47;14.50;;;;;;;;;;4993638;28;20439;-84
2023/12/01 08:07:14;;;;;;;22.50;12.30;;;;;;;;;;4993459;28;20509;-85
2023/12/01 08:09:42;;;;;;;25.57;16.00;;;;;;;;;;4993570;28;20407;-85
2023/12/01 08:12:08;;;;;;;29.77;15.50;;;;;;;;;;5008274;28;20946;-84
2023/12/01 08:14:34;;;;;;;29.60;15.80;;;;;;;;;;4993579;28;20838;-84
2023/12/01 08:17:00;;;;;;;21.47;13.27;;;;;;;;;;4993481;28;20786;-84
2023/12/01 08:19:26;;;;;;;22.93;14.33;;;;;;;;;;4993338;28;20504;-84
2023/12/01 08:21:55;;;;;;;24.40;14.10;;;;;;;;;;4968103;28;20445;-84
2023/12/01 08:24:25;;;;;;;24.60;14.33;;;;;;;;;;5013004;28;20410;-84
2023/12/01 08:26:51;;;;;;;26.07;14.80;;;;;;;;;;5012636;28;20476;-84
2023/12/01 08:29:17;;;;;;;26.13;14.03;;;;;;;;;;5013507;28;20921;-86
2023/12/01 08:31:45;;;;;;;24.10;14.80;;;;;;;;;;5011652;28;20441;-84
2023/12/01 08:34:11;;;;;;;25.37;14.07;;;;;;;;;;5013019;28;20405;-85
2023/12/01 08:36:37;;;;;;;27.93;15.30;;;;;;;;;;5012943;28;20551;-84
2023/12/01 08:39:04;;;;;;;26.03;13.63;;;;;;;;;;5013000;28;20503;-84
2023/12/01 08:41:30;;;;;;;20.40;13.27;;;;;;;;;;5012759;28;20419;-87
2023/12/01 08:43:56;;;;;;;27.27;16.03;;;;;;;;;;5012051;28;20889;-88
2023/12/01 08:46:22;;;;;;;27.63;14.93;;;;;;;;;;5011608;28;20485;-85
2023/12/01 08:48:48;;;;;;;26.10;15.50;;;;;;;;;;5011999;28;20409;-87
2023/12/01 08:51:14;;;;;;;25.47;14.03;;;;;;;;;;5013069;28;21069;-84
2023/12/01 08:53:40;;;;;;;24.70;14.80;;;;;;;;;;5011791;28;20545;-86
2023/12/01 08:56:07;;;;;;;24.50;15.00;;;;;;;;;;5015319;28;20429;-87
2023/12/01 08:58:33;;;;;;;21.97;12.57;;;;;;;;;;5022794;28;20475;-86
2023/12/01 09:00:59;;;;;;;25.20;14.00;;;;;;;;;;5023623;28;20414;-87
2023/12/01 09:03:25;;;;;;;24.87;15.60;;;;;;;;;;5020918;28;20425;-86
2023/12/01 09:05:51;;;;;;;24.63;14.93;;;;;;;;;;5020387;28;20528;-86
2023/12/01 09:08:17;;;;;;;23.93;13.87;;;;;;;;;;5011566;28;20436;-85
2023/12/01 09:10:42;;;;;;;19.90;13.90;;;;;;;;;;5022400;28;20465;-86
2023/12/01 09:13:08;;;;;;;22.53;14.70;;;;;;;;;;5025830;28;20421;-88
2023/12/01 09:15:34;;;;;;;29.43;17.03;;;;;;;;;;5029907;28;20431;-86
2023/12/01 09:18:00;;;;;;;25.27;14.00;;;;;;;;;;5024277;28;20418;-90
2023/12/01 09:20:26;;;;;;;28.20;14.63;;;;;;;;;;4999464;28;21467;-84
2023/12/01 09:22:52;;;;;;;21.63;14.63;;;;;;;;;;5007599;28;20417;-90
2023/12/01 09:25:18;;;;;;;21.40;13.60;;;;;;;;;;5030729;28;20418;-89
2023/12/01 09:27:44;;;;;;;22.07;13.87;;;;;;;;;;5025925;28;20478;-91
2023/12/01 09:30:13;;;;;;;23.40;13.33;;;;;;;;;;5028378;28;20422;-90
2023/12/01 09:32:40;;;;;;;20.20;12.30;;;;;;;;;;5039102;28;20431;-91
2023/12/01 09:35:06;;;;;;;24.27;15.00;;;;;;;;;;5028933;28;20900;-88
2023/12/01 09:37:32;;;;;;;21.10;12.83;;;;;;;;;;5026239;28;20413;-90
2023/12/01 09:39:58;;;;;;;21.60;13.33;;;;;;;;;;5027875;28;20492;-87
2023/12/01 09:42:24;;;;;;;23.93;14.83;;;;;;;;;;5028123;28;20436;-88
2023/12/01 09:44:54;;;;;;;21.23;13.13;;;;;;;;;;5026450;28;20412;-90
2023/12/01 09:47:22;;;;;;;24.00;15.20;;;;;;;;;;5024108;28;21031;-90
2023/12/01 09:50:08;;;;;;;20.17;13.13;;;;;;;;;;5031415;28;20970;-89
2023/12/01 09:52:34;;;;;;;22.03;13.97;;;;;;;;;;5030176;28;20487;-89
2023/12/01 09:55:04;;;;;;;16.43;11.20;;;;;;;;;;5033174;28;20438;-88
2023/12/01 09:57:30;;;;;;;20.80;13.00;;;;;;;;;;5022840;28;20772;-91
2023/12/01 09:59:56;;;;;;;19.87;13.27;;;;;;;;;;5036160;28;20435;-90
2023/12/01 10:02:22;;;;;;;18.40;13.87;;;;;;;;;;5030232;28;20515;-90
2023/12/01 10:04:48;;;;;;;18.70;13.10;;;;;;;;;;5021687;28;20423;-89
2023/12/01 10:07:14;;;;;;;20.40;14.30;;;;;;;;;;5025990;28;20494;-90
2023/12/01 10:09:40;;;;;;;22.17;13.93;;;;;;;;;;5035479;28;20423;-90
2023/12/01 10:12:10;;;;;;;22.60;14.53;;;;;;;;;;5021978;28;20407;-90
2023/12/01 10:14:36;;;;;;;23.07;13.57;;;;;;;;;;5029406;28;20416;-89
2023/12/01 10:17:03;;;;;;;21.53;13.03;;;;;;;;;;5012623;28;20423;-90
2023/12/01 10:19:32;;;;;;;21.20;13.20;;;;;;;;;;5024275;28;20490;-91
2023/12/01 10:21:58;;;;;;;22.97;14.10;;;;;;;;;;4991413;28;20934;-90
2023/12/01 10:24:24;;;;;;;23.57;13.93;;;;;;;;;;5025237;28;20842;-89
2023/12/01 10:26:51;;;;;;;22.53;15.07;;;;;;;;;;5024252;28;20471;-89
2023/12/01 10:29:24;;;;;;;19.97;13.87;;;;;;;;;;5034070;28;20905;-89
2023/12/01 10:31:50;;;;;;;22.30;14.63;;;;;;;;;;5021987;28;20404;-88
2023/12/01 10:34:16;;;;;;;22.53;13.73;;;;;;;;;;5031365;28;21914;-90
2023/12/01 10:36:43;;;;;;;25.23;14.23;;;;;;;;;;5029714;28;20526;-86
2023/12/01 10:39:11;;;;;;;22.83;13.40;;;;;;;;;;5028896;28;20411;-89
2023/12/01 10:41:39;;;;;;;21.30;13.80;;;;;;;;;;5026593;28;20432;-85
2023/12/01 10:44:06;;;;;;;17.43;12.60;;;;;;;;;;5030112;28;20506;-90
2023/12/01 10:46:32;;;;;;;18.60;12.37;;;;;;;;;;5028261;28;20483;-86
2023/12/01 10:48:59;;;;;;;21.20;11.67;;;;;;;;;;5027884;28;20405;-88
2023/12/01 10:51:25;;;;;;;19.30;12.33;;;;;;;;;;5023387;28;20473;-87
2023/12/01 10:53:54;;;;;;;20.70;12.87;;;;;;;;;;5022297;28;20508;-87
2023/12/01 10:56:24;;;;;;;18.37;13.30;;;;;;;;;;5017188;28;20418;-91
2023/12/01 10:58:52;;;;;;;17.93;11.30;;;;;;;;;;5026351;28;20775;-89
2023/12/01 11:01:18;;;;;;;16.20;11.97;;;;;;;;;;5034882;28;20399;-93
2023/12/01 11:03:45;;;;;;;17.70;13.53;;;;;;;;;;5025710;28;20421;-84
2023/12/01 11:06:19;;;;;;;16.90;11.87;;;;;;;;;;5024854;28;20457;-84
2023/12/01 11:09:14;;;;;;;16.03;12.00;;;;;;;;;;5021628;28;20956;-85
2023/12/01 11:11:52;;;;;;;15.23;11.73;;;;;;;;;;5022416;28;20418;-91
2023/12/01 11:14:21;;;;;;;14.30;11.20;;;;;;;;;;5021114;28;20463;-87
2023/12/01 11:16:48;;;;;;;16.30;11.90;;;;;;;;;;5018664;28;20912;-88
2023/12/01 11:19:15;;;;;;;16.13;12.03;;;;;;;;;;5015169;28;20458;-85
2023/12/01 11:21:42;;;;;;;17.43;12.10;;;;;;;;;;4981180;28;20501;-84
2023/12/01 11:24:31;;;;;;;19.70;11.80;;;;;;;;;;5016716;28;20413;-85
2023/12/01 11:27:00;;;;;;;17.90;10.97;;;;;;;;;;5019664;28;20449;-88
2023/12/01 11:29:32;;;;;;;16.23;11.23;;;;;;;;;;5022011;28;20425;-91
2023/12/01 11:31:58;;;;;;;13.20;10.37;;;;;;;;;;5017391;28;20464;-90
2023/12/01 11:34:27;;;;;;;13.30;9.27;;;;;;;;;;5014583;28;20827;-91
2023/12/01 11:36:54;;;;;;;16.40;11.00;;;;;;;;;;5029044;28;20413;-91
2023/12/01 11:39:23;;;;;;;16.07;9.57;;;;;;;;;;5018947;28;20450;-90
2023/12/01 11:41:58;;;;;;;15.00;10.20;;;;;;;;;;5025546;28;20936;-91
2023/12/01 11:44:29;;;;;;;13.13;9.10;;;;;;;;;;5022749;28;20421;-87
2023/12/01 11:46:59;;;;;;;13.23;9.87;;;;;;;;;;5020468;28;20460;-90
2023/12/01 11:49:32;;;;;;;14.80;10.20;;;;;;;;;;5027385;28;20432;-88
2023/12/01 11:51:58;;;;;;;12.83;10.03;;;;;;;;;;5033264;28;20441;-91
2023/12/01 11:54:24;;;;;;;12.27;8.73;;;;;;;;;;5033348;28;20410;-91
2023/12/01 11:56:51;;;;;;;11.13;8.83;;;;;;;;;;5017644;28;20422;-91
2023/12/01 11:59:17;;;;;;;15.23;9.83;;;;;;;;;;5025736;28;20449;-91
2023/12/01 12:01:44;;;;;;;12.27;8.90;;;;;;;;;;5020658;28;20769;-89
2023/12/01 12:04:13;;;;;;;12.10;9.43;;;;;;;;;;5032234;28;20415;-88
2023/12/01 12:06:41;;;;;;;12.63;8.70;;;;;;;;;;5024798;28;20485;-90
2023/12/01 12:09:08;;;;;;;13.10;9.90;;;;;;;;;;5016870;28;20420;-90
2023/12/01 12:11:35;;;;;;;12.90;9.13;;;;;;;;;;5016190;28;20466;-92
2023/12/01 12:14:03;;;;;;;14.83;9.40;;;;;;;;;;5030591;28;20411;-91
2023/12/01 12:16:29;;;;;;;12.20;8.20;;;;;;;;;;5019473;28;20419;-91
2023/12/01 12:18:59;;;;;;;11.43;8.20;;;;;;;;;;5019435;28;20441;-89
2023/12/01 12:21:25;;;;;;;11.87;9.17;;;;;;;;;;5020978;28;20447;-92
2023/12/01 12:23:51;;;;;;;9.67;7.70;;;;;;;;;;5024838;28;20418;-89
2023/12/01 12:26:22;;;;;;;11.50;7.70;;;;;;;;;;5032800;28;20496;-86
2023/12/01 12:29:00;;;;;;;12.53;7.50;;;;;;;;;;5028583;28;20410;-88
2023/12/01 12:31:27;;;;;;;11.33;7.20;;;;;;;;;;5030196;28;20909;-88
2023/12/01 12:33:54;;;;;;;10.10;6.03;;;;;;;;;;5033969;28;20422;-89
2023/12/01 12:36:26;;;;;;;9.07;6.37;;;;;;;;;;5035305;28;20452;-90
2023/12/01 12:38:53;;;;;;;7.23;4.63;;;;;;;;;;5052729;28;20445;-83
2023/12/01 12:41:23;;;;;;;8.93;5.90;;;;;;;;;;5051982;28;20424;-83
2023/12/01 12:43:56;;;;;;;8.53;5.40;;;;;;;;;;5053573;28;20413;-86
2023/12/01 12:46:22;;;;;;;9.07;6.93;;;;;;;;;;5045373;28;20457;-91
2023/12/01 12:48:49;;;;;;;8.87;5.13;;;;;;;;;;5036587;28;20913;-90
2023/12/01 12:51:16;;;;;;;7.23;4.70;;;;;;;;;;5036657;28;20917;-91
2023/12/01 12:53:43;;;;;;;7.27;5.43;;;;;;;;;;5037758;28;20431;-89
2023/12/01 12:56:13;;;;;;;5.90;4.30;;;;;;;;;;5036154;28;20416;-91
2023/12/01 12:58:40;;;;;;;7.13;4.33;;;;;;;;;;5036259;28;20821;-91
2023/12/01 13:01:09;;;;;;;11.13;5.50;;;;;;;;;;5037251;28;20403;-90
2023/12/01 13:03:36;;;;;;;5.80;4.40;;;;;;;;;;5037153;28;20416;-91
2023/12/01 13:06:02;;;;;;;7.47;4.93;;;;;;;;;;5037084;28;20941;-90
2023/12/01 13:08:28;;;;;;;8.73;5.20;;;;;;;;;;5036222;28;20429;-91
2023/12/01 13:10:53;;;;;;;10.67;4.60;;;;;;;;;;5035950;28;20405;-90
2023/12/01 13:13:20;;;;;;;8.47;3.70;;;;;;;;;;5028814;28;20414;-91
2023/12/01 13:15:46;;;;;;;8.33;4.63;;;;;;;;;;5037281;28;21018;-92
2023/12/01 13:18:12;;;;;;;8.50;4.87;;;;;;;;;;5027294;28;20454;-92
2023/12/01 13:20:38;;;;;;;7.43;4.83;;;;;;;;;;5016039;28;20923;-90
2023/12/01 13:23:04;;;;;;;8.57;4.23;;;;;;;;;;5016305;28;20427;-92
2023/12/01 13:25:30;;;;;;;7.80;4.63;;;;;;;;;;5019611;28;20899;-90
2023/12/01 13:27:56;;;;;;;6.53;3.73;;;;;;;;;;5023763;28;20423;-90
2023/12/01 13:30:22;;;;;;;15.07;9.47;;;;;;;;;;5024814;28;20902;-91
2023/12/01 13:32:48;;;;;;;16.67;11.33;;;;;;;;;;5026795;28;20458;-88
2023/12/01 13:35:14;;;;;;;17.60;10.17;;;;;;;;;;5032989;28;20409;-88
2023/12/01 13:37:40;;;;;;;19.63;11.83;;;;;;;;;;5021967;28;20904;-91
2023/12/01 13:40:09;;;;;;;18.87;11.73;;;;;;;;;;5019661;28;20414;-89
2023/12/01 13:42:36;;;;;;;17.10;12.90;;;;;;;;;;5034337;28;20419;-88
2023/12/01 13:45:02;;;;;;;16.83;12.37;;;;;;;;;;5016727;28;20568;-90
2023/12/01 13:47:28;;;;;;;16.33;10.03;;;;;;;;;;5028389;28;20467;-91
2023/12/01 13:49:54;;;;;;;16.80;10.70;;;;;;;;;;5026079;28;20414;-89
2023/12/01 13:52:20;;;;;;;19.47;12.60;;;;;;;;;;5031387;28;20481;-92
2023/12/01 13:54:46;;;;;;;18.27;11.30;;;;;;;;;;5024603;28;20412;-89
2023/12/01 13:57:12;;;;;;;19.23;11.17;;;;;;;;;;5027981;28;20419;-92
2023/12/01 13:59:39;;;;;;;16.27;10.40;;;;;;;;;;5030462;28;20428;-86
2023/12/01 14:02:05;;;;;;;12.90;9.53;;;;;;;;;;5027022;28;20449;-85
2023/12/01 14:04:31;;;;;;;15.80;10.60;;;;;;;;;;5018796;28;20810;-90
2023/12/01 14:06:57;;;;;;;13.40;10.37;;;;;;;;;;5024299;28;20517;-86
2023/12/01 14:09:23;;;;;;;14.40;9.73;;;;;;;;;;5026471;28;20414;-89
2023/12/01 14:11:49;;;;;;;13.20;10.13;;;;;;;;;;5021017;28;20418;-89
2023/12/01 14:14:15;;;;;;;17.43;10.30;;;;;;;;;;5020392;28;20426;-88
2023/12/01 14:16:41;;;;;;;16.57;12.30;;;;;;;;;;5025434;28;20422;-90
2023/12/01 14:19:06;;;;;;;18.70;12.67;;;;;;;;;;5030278;28;20915;-90